createdAt,value
2022-10-07T00:01:04.610Z,1.50
2022-10-07T00:03:32.993Z,1.40
2022-10-07T00:06:14.505Z,1.45
2022-10-07T00:08:45.256Z,1.48
2022-10-07T00:11:18.999Z,1.70
2022-10-07T00:13:48.163Z,1.77
2022-10-07T00:16:22.680Z,1.98
2022-10-07T00:18:58.053Z,1.67
2022-10-07T00:21:31.352Z,2.17
2022-10-07T00:23:59.612Z,2.03
2022-10-07T00:26:30.491Z,2.00
2022-10-07T00:28:58.726Z,1.83
2022-10-07T00:31:28.939Z,1.95
2022-10-07T00:33:57.603Z,1.65
2022-10-07T00:36:27.739Z,1.70
2022-10-07T00:39:07.426Z,1.67
2022-10-07T00:41:40.778Z,1.60
2022-10-07T00:44:36.535Z,1.70
2022-10-07T00:47:04.460Z,1.42
2022-10-07T00:49:45.221Z,1.42
2022-10-07T00:52:14.934Z,1.40
2022-10-07T00:54:43.470Z,1.80
2022-10-07T00:57:11.585Z,1.52
2022-10-07T00:59:40.155Z,1.13
2022-10-07T01:02:10.293Z,1.23
2022-10-07T01:04:38.848Z,1.23
2022-10-07T01:07:07.236Z,1.20
2022-10-07T01:09:35.113Z,1.20
2022-10-07T01:12:37.405Z,1.08
2022-10-07T01:15:27.728Z,1.25
2022-10-07T01:18:14.126Z,1.20
2022-10-07T01:21:08.876Z,1.40
2022-10-07T01:24:16.085Z,1.38
2022-10-07T01:27:03.956Z,1.20
2022-10-07T01:29:41.372Z,1.30
2022-10-07T01:32:32.690Z,1.63
2022-10-07T01:35:06.047Z,1.23
2022-10-07T01:37:37.796Z,1.85
2022-10-07T01:42:34.712Z,1.52
2022-10-07T01:45:04.006Z,1.20
2022-10-07T01:47:31.864Z,1.15
2022-10-07T01:49:59.654Z,1.50
2022-10-07T01:52:56.676Z,1.80
2022-10-07T01:55:45.354Z,1.58
2022-10-07T01:58:34.929Z,1.58
2022-10-07T02:01:07.681Z,1.60
2022-10-07T02:03:40.530Z,2.57
2022-10-07T02:06:30.886Z,1.45
2022-10-07T02:09:02.180Z,2.35
2022-10-07T02:11:33.049Z,1.80
2022-10-07T02:14:14.574Z,1.70
2022-10-07T02:16:45.179Z,1.73
2022-10-07T02:19:24.238Z,1.95
2022-10-07T02:21:53.609Z,1.90
2022-10-07T02:24:23.719Z,1.50
2022-10-07T02:26:52.834Z,2.10
2022-10-07T02:29:22.234Z,1.92
2022-10-07T02:31:53.597Z,2.10
2022-10-07T02:34:22.892Z,1.95
2022-10-07T02:37:01.873Z,1.70
2022-10-07T02:39:32.252Z,2.10
2022-10-07T02:42:10.357Z,1.95
2022-10-07T02:44:44.150Z,1.75
2022-10-07T02:47:16.666Z,1.65
2022-10-07T02:49:47.319Z,1.70
2022-10-07T02:52:16.952Z,1.83
2022-10-07T02:54:56.561Z,1.90
2022-10-07T02:57:26.583Z,1.50
2022-10-07T02:59:54.927Z,1.42
2022-10-07T03:02:38.011Z,1.73
2022-10-07T03:05:08.069Z,1.65
2022-10-07T03:07:36.991Z,1.30
2022-10-07T03:10:09.090Z,1.85
2022-10-07T03:12:37.740Z,1.55
2022-10-07T03:15:06.372Z,1.60
2022-10-07T03:17:34.320Z,1.92
2022-10-07T03:20:02.436Z,1.73
2022-10-07T03:22:31.540Z,1.63
2022-10-07T03:24:59.331Z,1.33
2022-10-07T03:27:27.272Z,2.10
2022-10-07T03:29:55.394Z,2.08
2022-10-07T03:32:23.314Z,1.67
2022-10-07T03:34:53.030Z,1.50
2022-10-07T03:37:23.997Z,1.27
2022-10-07T03:39:52.972Z,1.60
2022-10-07T03:42:21.258Z,1.60
2022-10-07T03:44:50.207Z,1.65
2022-10-07T03:47:19.168Z,1.63
2022-10-07T03:49:47.513Z,1.55
2022-10-07T03:52:15.250Z,1.75
2022-10-07T03:54:43.789Z,2.15
2022-10-07T03:57:30.081Z,1.60
2022-10-07T04:00:00.333Z,1.70
2022-10-07T04:02:28.752Z,2.15
2022-10-07T04:04:57.345Z,1.85
2022-10-07T04:07:25.494Z,1.70
2022-10-07T04:09:53.302Z,1.55
2022-10-07T04:12:21.356Z,1.80
2022-10-07T04:14:49.212Z,1.88
2022-10-07T04:17:21.999Z,1.52
2022-10-07T04:19:50.052Z,1.55
2022-10-07T04:22:18.524Z,1.60
2022-10-07T04:25:09.015Z,1.58
2022-10-07T04:27:51.133Z,1.48
2022-10-07T04:30:20.821Z,1.67
2022-10-07T04:32:52.295Z,1.60
2022-10-07T04:35:24.004Z,1.77
2022-10-07T04:37:54.807Z,1.83
2022-10-07T04:40:25.463Z,1.88
2022-10-07T04:43:11.883Z,1.75
2022-10-07T04:45:41.042Z,1.83
2022-10-07T04:48:10.392Z,1.67
2022-10-07T04:50:39.789Z,1.50
2022-10-07T04:53:11.055Z,1.80
2022-10-07T04:55:40.859Z,1.60
2022-10-07T04:58:09.987Z,1.90
2022-10-07T05:00:43.746Z,1.63
2022-10-07T05:03:12.857Z,1.95
2022-10-07T05:05:45.813Z,1.65
2022-10-07T05:08:16.062Z,1.70
2022-10-07T05:10:45.874Z,1.85
2022-10-07T05:13:17.178Z,1.75
2022-10-07T05:15:57.938Z,2.00
2022-10-07T05:18:27.352Z,1.58
2022-10-07T05:20:57.809Z,1.75
2022-10-07T05:23:29.053Z,1.80
2022-10-07T05:26:02.158Z,1.45
2022-10-07T05:28:32.157Z,1.60
2022-10-07T05:31:18.163Z,1.40
2022-10-07T05:33:50.543Z,1.70
2022-10-07T05:36:24.144Z,1.63
2022-10-07T05:38:58.353Z,1.80
2022-10-07T05:41:38.451Z,1.40
2022-10-07T05:44:13.377Z,1.90
2022-10-07T05:46:42.227Z,1.85
2022-10-07T05:49:10.528Z,2.22
2022-10-07T05:51:38.358Z,1.98
2022-10-07T05:54:07.084Z,2.22
2022-10-07T05:56:40.396Z,1.73
2022-10-07T05:59:08.819Z,1.30
2022-10-07T06:01:38.019Z,1.77
2022-10-07T06:04:12.562Z,1.88
2022-10-07T06:06:43.531Z,2.20
2022-10-07T06:09:31.651Z,1.80
2022-10-07T06:12:21.753Z,1.90
2022-10-07T06:14:51.292Z,1.90
2022-10-07T06:17:18.968Z,2.95
2022-10-07T06:19:48.174Z,1.80
2022-10-07T06:22:18.147Z,1.63
2022-10-07T06:24:47.215Z,1.90
2022-10-07T06:27:16.113Z,1.55
2022-10-07T06:29:45.504Z,2.25
2022-10-07T06:32:13.515Z,1.70
2022-10-07T06:34:42.345Z,1.42
2022-10-07T06:37:10.615Z,2.13
2022-10-07T06:39:38.295Z,1.95
2022-10-07T06:42:06.105Z,1.67
2022-10-07T06:45:07.096Z,1.70
2022-10-07T06:47:36.457Z,1.80
2022-10-07T06:50:05.331Z,1.55
2022-10-07T06:52:33.306Z,1.52
2022-10-07T06:55:01.338Z,1.65
2022-10-07T06:57:45.260Z,2.03
2022-10-07T07:00:15.413Z,1.98
2022-10-07T07:02:45.116Z,2.33
2022-10-07T07:05:14.775Z,2.00
2022-10-07T07:07:44.455Z,2.10
2022-10-07T07:10:12.752Z,1.75
2022-10-07T07:12:44.380Z,1.98
2022-10-07T07:15:12.608Z,1.83
2022-10-07T07:17:41.237Z,1.58
2022-10-07T07:20:10.163Z,1.80
2022-10-07T07:22:39.439Z,2.17
2022-10-07T07:25:10.167Z,1.98
2022-10-07T07:27:39.127Z,1.80
2022-10-07T07:30:08.625Z,1.55
2022-10-07T07:32:36.432Z,1.83
2022-10-07T07:35:04.664Z,1.85
2022-10-07T07:37:32.713Z,1.75
2022-10-07T07:40:00.905Z,2.25
2022-10-07T07:42:28.677Z,1.88
2022-10-07T07:44:58.950Z,1.88
2022-10-07T07:47:28.152Z,2.25
2022-10-07T07:49:56.558Z,2.05
2022-10-07T07:52:29.858Z,2.67
2022-10-07T07:54:59.486Z,1.75
2022-10-07T07:57:28.529Z,1.48
2022-10-07T07:59:59.777Z,1.70
2022-10-07T08:02:29.428Z,1.98
2022-10-07T08:04:57.353Z,1.58
2022-10-07T08:07:26.991Z,1.38
2022-10-07T08:09:55.975Z,1.25
2022-10-07T08:12:23.956Z,1.58
2022-10-07T08:14:54.084Z,1.30
2022-10-07T08:17:22.531Z,1.52
2022-10-07T08:19:50.820Z,1.02
2022-10-07T08:22:19.446Z,1.30
2022-10-07T08:24:50.896Z,1.00
2022-10-07T08:27:20.979Z,1.00
2022-10-07T08:29:49.773Z,1.27
2022-10-07T08:32:17.596Z,1.25
2022-10-07T08:34:45.381Z,1.02
2022-10-07T08:37:13.137Z,1.60
2022-10-07T08:39:40.789Z,1.20
2022-10-07T08:42:37.725Z,2.13
2022-10-07T08:45:08.765Z,1.30
2022-10-07T08:47:46.768Z,0.98
2022-10-07T08:50:32.690Z,0.95
2022-10-07T08:53:05.721Z,0.80
2022-10-07T08:55:44.044Z,0.90
2022-10-07T08:58:26.839Z,1.50
2022-10-07T09:01:07.578Z,1.55
2022-10-07T09:03:56.093Z,0.70
2022-10-07T09:06:32.508Z,1.17
2022-10-07T09:09:04.380Z,0.88
2022-10-07T09:11:32.810Z,0.90
2022-10-07T09:14:33.006Z,1.00
2022-10-07T09:17:23.547Z,1.13
2022-10-07T09:22:24.046Z,0.82
2022-10-07T09:24:59.241Z,0.80
2022-10-07T09:27:27.140Z,0.80
2022-10-07T09:29:55.984Z,1.08
2022-10-07T09:32:23.928Z,1.05
2022-10-07T09:34:52.558Z,0.85
2022-10-07T09:37:26.806Z,0.82
2022-10-07T09:39:58.065Z,1.00
2022-10-07T09:42:46.190Z,0.73
2022-10-07T09:45:23.571Z,1.17
2022-10-07T09:47:53.814Z,0.80
2022-10-07T09:50:40.203Z,1.30
2022-10-07T09:53:35.844Z,1.02
2022-10-07T09:56:03.513Z,1.13
2022-10-07T09:58:32.650Z,0.70
2022-10-07T10:01:02.292Z,0.60
2022-10-07T10:03:35.174Z,0.80
2022-10-07T10:06:09.031Z,1.08
2022-10-07T10:08:39.731Z,0.77
2022-10-07T10:11:20.962Z,0.65
2022-10-07T10:13:50.568Z,1.30
2022-10-07T10:16:37.661Z,1.20
2022-10-07T10:19:26.079Z,0.60
2022-10-07T10:21:56.490Z,1.02
2022-10-07T10:24:43.732Z,0.63
2022-10-07T10:27:25.744Z,0.70
2022-10-07T10:29:57.772Z,0.93
2022-10-07T10:33:04.682Z,0.80
2022-10-07T10:35:45.100Z,0.32
2022-10-07T10:38:36.003Z,1.27
2022-10-07T10:41:27.872Z,0.80
2022-10-07T10:44:51.246Z,0.75
2022-10-07T10:47:44.865Z,0.73
2022-10-07T10:50:21.520Z,0.70
2022-10-07T10:52:58.301Z,0.60
2022-10-07T10:56:13.942Z,0.40
2022-10-07T10:59:03.489Z,0.55
2022-10-07T11:01:43.103Z,0.65
2022-10-07T11:07:22.514Z,0.95
2022-10-07T11:10:00.648Z,0.77
2022-10-07T11:12:44.633Z,0.70
2022-10-07T11:15:28.011Z,0.63
2022-10-07T11:18:00.146Z,0.77
2022-10-07T11:20:34.435Z,0.70
2022-10-07T11:23:23.096Z,0.50
2022-10-07T11:26:17.869Z,0.50
2022-10-07T11:28:45.952Z,0.80
2022-10-07T11:31:27.478Z,0.80
2022-10-07T11:34:12.761Z,0.82
2022-10-07T11:37:03.324Z,0.70
2022-10-07T11:39:31.383Z,1.02
2022-10-07T11:42:29.624Z,1.10
2022-10-07T11:45:04.600Z,0.70
2022-10-07T11:47:37.109Z,0.60
2022-10-07T11:50:15.856Z,0.82
2022-10-07T11:52:47.252Z,0.73
2022-10-07T11:55:33.751Z,1.05
2022-10-07T11:58:04.458Z,0.60
2022-10-07T12:00:34.332Z,1.08
2022-10-07T12:03:20.132Z,1.00
2022-10-07T12:05:50.697Z,1.13
2022-10-07T12:08:27.004Z,0.80
2022-10-07T12:11:14.701Z,0.95
2022-10-07T12:13:51.055Z,0.70
2022-10-07T12:16:31.538Z,1.05
2022-10-07T12:19:08.014Z,0.82
2022-10-07T12:22:00.379Z,0.93
2022-10-07T12:24:36.116Z,0.73
2022-10-07T12:27:24.607Z,0.90
2022-10-07T12:29:58.965Z,0.63
2022-10-07T12:32:53.277Z,0.70
2022-10-07T12:35:34.561Z,0.85
2022-10-07T12:38:19.140Z,0.73
2022-10-07T12:41:26.024Z,0.60
2022-10-07T12:44:23.379Z,0.65
2022-10-07T12:46:54.870Z,0.75
2022-10-07T12:49:41.303Z,0.90
2022-10-07T12:52:14.317Z,0.57
2022-10-07T12:54:48.281Z,0.63
2022-10-07T12:57:24.900Z,0.95
2022-10-07T13:00:08.386Z,0.70
2022-10-07T13:03:07.094Z,0.60
2022-10-07T13:06:00.970Z,0.67
2022-10-07T13:08:46.218Z,0.88
2022-10-07T13:11:35.711Z,0.60
2022-10-07T13:14:24.705Z,0.40
2022-10-07T13:16:58.273Z,0.80
2022-10-07T13:19:40.183Z,1.13
2022-10-07T13:22:14.337Z,0.52
2022-10-07T13:24:50.227Z,0.70
2022-10-07T13:27:21.066Z,0.77
2022-10-07T13:29:49.017Z,0.80
2022-10-07T13:32:22.607Z,0.75
2022-10-07T13:34:52.346Z,0.80
2022-10-07T13:37:37.891Z,0.60
2022-10-07T13:40:22.403Z,0.70
2022-10-07T13:42:59.396Z,0.68
2022-10-07T13:45:28.495Z,0.90
2022-10-07T13:47:58.016Z,0.40
2022-10-07T13:50:30.956Z,0.52
2022-10-07T13:52:58.999Z,0.82
2022-10-07T13:55:26.716Z,0.77
2022-10-07T13:57:57.495Z,0.68
2022-10-07T14:00:26.177Z,0.88
2022-10-07T14:02:54.334Z,0.75
2022-10-07T14:05:28.701Z,0.80
2022-10-07T14:08:16.409Z,0.75
2022-10-07T14:11:15.783Z,0.75
2022-10-07T14:13:44.397Z,0.52
2022-10-07T14:16:22.345Z,0.82
2022-10-07T14:18:52.934Z,0.57
2022-10-07T14:21:20.805Z,0.50
2022-10-07T14:23:51.016Z,0.73
2022-10-07T14:26:19.291Z,0.65
2022-10-07T14:28:47.311Z,0.57
2022-10-07T14:31:39.412Z,0.70
2022-10-07T14:34:33.028Z,0.47
2022-10-07T14:37:12.607Z,0.55
2022-10-07T14:39:42.749Z,0.32
2022-10-07T14:42:14.093Z,0.60
2022-10-07T14:44:44.078Z,2.95
2022-10-07T14:47:19.318Z,0.40
2022-10-07T14:49:53.336Z,0.50
2022-10-07T14:52:28.439Z,0.90
2022-10-07T14:55:05.392Z,0.88
2022-10-07T14:57:34.259Z,0.90
2022-10-07T15:00:01.957Z,0.63
2022-10-07T15:02:30.608Z,0.90
2022-10-07T15:04:58.555Z,0.38
2022-10-07T15:07:26.529Z,0.85
2022-10-07T15:09:54.508Z,0.57
2022-10-07T15:12:22.351Z,1.17
2022-10-07T15:14:52.507Z,0.95
2022-10-07T15:19:47.884Z,1.00
2022-10-07T15:22:17.768Z,0.60
2022-10-07T15:24:45.526Z,0.50
2022-10-07T15:27:13.416Z,1.05
2022-10-07T15:29:42.093Z,0.50
2022-10-07T15:32:09.947Z,0.77
2022-10-07T15:34:37.931Z,0.63
2022-10-07T15:37:06.347Z,1.02
2022-10-07T15:39:38.796Z,0.73
2022-10-07T15:42:08.948Z,1.15
2022-10-07T15:44:36.850Z,0.82
2022-10-07T15:47:04.619Z,0.60
2022-10-07T15:49:32.488Z,0.60
2022-10-07T15:52:01.011Z,0.90
2022-10-07T15:54:28.940Z,1.15
2022-10-07T15:56:59.766Z,0.70
2022-10-07T15:59:27.921Z,1.10
2022-10-07T16:01:56.021Z,0.70
2022-10-07T16:04:23.878Z,0.50
2022-10-07T16:06:51.937Z,0.70
2022-10-07T16:09:23.463Z,0.90
2022-10-07T16:11:51.602Z,1.25
2022-10-07T16:14:19.436Z,0.88
2022-10-07T16:16:47.292Z,0.98
2022-10-07T16:19:15.230Z,0.90
2022-10-07T16:21:43.606Z,0.80
2022-10-07T16:24:22.220Z,1.40
2022-10-07T16:26:55.706Z,0.85
2022-10-07T16:29:42.913Z,0.95
2022-10-07T16:32:11.776Z,0.65
2022-10-07T16:34:43.657Z,0.77
2022-10-07T16:37:12.482Z,1.30
2022-10-07T16:39:40.433Z,0.70
2022-10-07T16:42:08.422Z,1.40
2022-10-07T16:44:36.384Z,1.08
2022-10-07T16:47:04.109Z,0.80
2022-10-07T16:49:31.878Z,0.90
2022-10-07T16:51:59.808Z,1.83
2022-10-07T16:54:30.487Z,1.13
2022-10-07T16:56:58.810Z,0.68
2022-10-07T16:59:26.770Z,0.75
2022-10-07T17:01:56.096Z,0.73
2022-10-07T17:04:25.043Z,0.80
2022-10-07T17:06:53.396Z,0.60
2022-10-07T17:09:22.159Z,0.80
2022-10-07T17:11:50.117Z,1.20
2022-10-07T17:14:20.225Z,1.20
2022-10-07T17:16:51.012Z,1.48
2022-10-07T17:19:21.265Z,1.02
2022-10-07T17:21:50.296Z,1.25
2022-10-07T17:24:19.120Z,0.70
2022-10-07T17:26:47.549Z,0.82
2022-10-07T17:29:21.243Z,1.00
2022-10-07T17:31:50.944Z,1.00
2022-10-07T17:34:20.881Z,1.05
2022-10-07T17:36:50.598Z,1.45
2022-10-07T17:39:21.555Z,1.17
2022-10-07T17:41:49.385Z,1.20
2022-10-07T17:44:17.726Z,1.38
2022-10-07T17:46:45.523Z,1.27
2022-10-07T17:49:16.008Z,1.95
2022-10-07T17:51:44.145Z,1.52
2022-10-07T17:54:13.714Z,1.40
2022-10-07T17:56:44.675Z,1.05
2022-10-07T17:59:12.515Z,1.20
2022-10-07T18:01:41.480Z,1.00
2022-10-07T18:04:15.064Z,0.95
2022-10-07T18:06:43.530Z,1.60
2022-10-07T18:09:15.184Z,1.50
2022-10-07T18:12:01.430Z,1.52
2022-10-07T18:14:53.265Z,1.20
2022-10-07T18:17:22.062Z,1.45
2022-10-07T18:19:49.827Z,1.30
2022-10-07T18:22:17.581Z,1.27
2022-10-07T18:24:46.369Z,1.20
2022-10-07T18:27:16.513Z,1.50
2022-10-07T18:29:44.315Z,1.52
2022-10-07T18:32:12.319Z,1.73
2022-10-07T18:34:40.181Z,2.20
2022-10-07T18:37:07.881Z,1.77
2022-10-07T18:39:38.773Z,1.67
2022-10-07T18:42:06.767Z,1.20
2022-10-07T18:44:34.640Z,1.63
2022-10-07T18:47:02.508Z,1.63
2022-10-07T18:49:30.294Z,1.77
2022-10-07T18:51:58.087Z,1.30
2022-10-07T18:54:26.196Z,1.35
2022-10-07T18:56:54.368Z,0.95
2022-10-07T18:59:22.279Z,1.30
2022-10-07T19:01:51.094Z,1.02
2022-10-07T19:04:22.257Z,1.02
2022-10-07T19:06:49.931Z,1.13
2022-10-07T19:09:21.998Z,0.90
2022-10-07T19:11:50.029Z,1.20
2022-10-07T19:14:18.378Z,1.02
2022-10-07T19:16:49.393Z,1.00
2022-10-07T19:19:22.424Z,1.30
2022-10-07T19:21:52.095Z,1.10
2022-10-07T19:24:20.459Z,1.30
2022-10-07T19:26:50.219Z,1.42
2022-10-07T19:29:18.330Z,1.10
2022-10-07T19:31:50.223Z,1.45
2022-10-07T19:34:20.869Z,0.85
2022-10-07T19:36:49.090Z,1.50
2022-10-07T19:39:21.835Z,1.40
2022-10-07T19:41:51.375Z,1.42
2022-10-07T19:44:19.328Z,1.63
2022-10-07T19:46:47.280Z,1.33
2022-10-07T19:49:15.049Z,1.48
2022-10-07T19:51:45.028Z,1.20
2022-10-07T19:54:13.455Z,1.00
2022-10-07T19:56:42.551Z,1.10
2022-10-07T19:59:12.437Z,0.93
2022-10-07T20:01:42.654Z,1.13
2022-10-07T20:04:19.148Z,1.23
2022-10-07T20:06:47.028Z,1.30
2022-10-07T20:09:17.044Z,1.30
2022-10-07T20:11:45.662Z,1.10
2022-10-07T20:14:13.890Z,1.20
2022-10-07T20:16:41.864Z,1.23
2022-10-07T20:19:13.340Z,1.25
2022-10-07T20:21:41.248Z,1.20
2022-10-07T20:24:10.156Z,0.98
2022-10-07T20:26:39.511Z,1.13
2022-10-07T20:29:10.320Z,1.50
2022-10-07T20:31:41.339Z,1.20
2022-10-07T20:34:16.169Z,1.10
2022-10-07T20:36:44.434Z,1.17
2022-10-07T20:39:38.249Z,1.73
2022-10-07T20:42:22.119Z,1.10
2022-10-07T20:44:50.890Z,1.42
2022-10-07T20:47:19.816Z,0.95
2022-10-07T20:49:49.302Z,1.30
2022-10-07T20:52:19.434Z,1.08
2022-10-07T20:54:48.108Z,1.92
2022-10-07T20:57:18.449Z,1.05
2022-10-07T20:59:46.312Z,1.20
2022-10-07T21:02:15.810Z,1.17
2022-10-07T21:04:44.015Z,1.20
2022-10-07T21:07:11.873Z,1.10
2022-10-07T21:09:40.124Z,1.15
2022-10-07T21:12:11.703Z,1.10
2022-10-07T21:17:08.101Z,1.15
2022-10-07T21:19:38.604Z,1.20
2022-10-07T21:22:06.775Z,1.25
2022-10-07T21:24:34.726Z,1.33
2022-10-07T21:27:03.906Z,1.20
2022-10-07T21:29:31.755Z,1.83
2022-10-07T21:32:01.018Z,1.38
2022-10-07T21:34:30.082Z,1.48
2022-10-07T21:36:57.977Z,1.30
2022-10-07T21:39:26.600Z,1.50
2022-10-07T21:41:54.867Z,1.33
2022-10-07T21:44:22.717Z,1.50
2022-10-07T21:46:50.868Z,1.10
2022-10-07T21:49:18.708Z,1.20
2022-10-07T21:51:47.336Z,1.20
2022-10-07T21:54:15.647Z,1.30
2022-10-07T21:56:46.287Z,1.50
2022-10-07T21:59:14.562Z,1.30
2022-10-07T22:01:43.331Z,1.17
2022-10-07T22:04:17.385Z,1.00
2022-10-07T22:07:04.085Z,1.23
2022-10-07T22:09:32.190Z,1.35
2022-10-07T22:11:59.976Z,1.10
2022-10-07T22:14:27.938Z,1.10
2022-10-07T22:16:55.735Z,1.20
2022-10-07T22:19:23.548Z,1.10
2022-10-07T22:21:51.509Z,1.20
2022-10-07T22:24:19.147Z,1.40
2022-10-07T22:26:47.840Z,1.10
2022-10-07T22:29:17.596Z,1.02
2022-10-07T22:31:45.701Z,1.00
2022-10-07T22:34:33.631Z,1.08
2022-10-07T22:37:01.482Z,1.45
2022-10-07T22:39:29.675Z,1.00
2022-10-07T22:41:58.700Z,1.10
2022-10-07T22:44:28.458Z,1.05
2022-10-07T22:46:57.094Z,1.00
2022-10-07T22:49:29.486Z,1.13
2022-10-07T22:51:59.992Z,1.20
2022-10-07T22:54:28.482Z,1.10
2022-10-07T22:56:56.251Z,1.27
2022-10-07T22:59:23.948Z,1.02
2022-10-07T23:01:51.564Z,1.05
2022-10-07T23:04:21.661Z,1.42
2022-10-07T23:06:49.581Z,0.90
2022-10-07T23:09:17.328Z,1.00
2022-10-07T23:11:45.815Z,1.10
2022-10-07T23:14:13.658Z,1.20
2022-10-07T23:16:42.135Z,0.82
2022-10-07T23:19:10.038Z,1.00
2022-10-07T23:21:37.805Z,1.20
2022-10-07T23:24:09.010Z,1.00
2022-10-07T23:26:37.522Z,1.00
2022-10-07T23:29:05.190Z,1.08
2022-10-07T23:31:33.712Z,1.13
2022-10-07T23:34:03.231Z,1.10
2022-10-07T23:36:31.594Z,1.45
2022-10-07T23:39:00.763Z,1.83
2022-10-07T23:41:29.940Z,2.28
2022-10-07T23:43:59.683Z,1.75
2022-10-07T23:46:28.697Z,1.17
2022-10-07T23:48:56.663Z,1.33
2022-10-07T23:51:27.909Z,1.10
2022-10-07T23:54:00.478Z,1.13
2022-10-07T23:56:28.737Z,1.08
2022-10-07T23:58:56.641Z,1.08
